createdAt,value
2023-02-12T00:01:12.524Z,6.06
2023-02-12T00:03:19.991Z,6.16
2023-02-12T00:05:25.172Z,6.20
2023-02-12T00:07:33.317Z,6.21
2023-02-12T00:09:39.247Z,6.24
2023-02-12T00:11:44.913Z,6.30
2023-02-12T00:13:50.353Z,6.35
2023-02-12T00:15:55.599Z,6.35
2023-02-12T00:18:00.626Z,6.29
2023-02-12T00:20:09.440Z,6.33
2023-02-12T00:22:14.311Z,6.40
2023-02-12T00:24:19.193Z,6.48
2023-02-12T00:26:25.365Z,6.56
2023-02-12T00:28:30.795Z,6.64
2023-02-12T00:30:35.715Z,6.66
2023-02-12T00:32:40.974Z,6.66
2023-02-12T00:34:45.942Z,6.66
2023-02-12T00:36:55.903Z,6.69
2023-02-12T00:39:01.196Z,6.70
2023-02-12T00:41:05.808Z,6.72
2023-02-12T00:43:10.685Z,6.73
2023-02-12T00:45:15.749Z,6.75
2023-02-12T00:47:20.351Z,6.70
2023-02-12T00:49:28.348Z,6.70
2023-02-12T00:51:32.945Z,6.70
2023-02-12T00:53:41.072Z,6.72
2023-02-12T00:55:45.988Z,6.74
2023-02-12T00:57:50.806Z,6.75
2023-02-12T00:59:55.694Z,6.80
2023-02-12T01:02:01.764Z,6.85
2023-02-12T01:04:07.118Z,6.85
2023-02-12T01:06:12.097Z,6.89
2023-02-12T01:08:19.625Z,6.91
2023-02-12T01:10:27.299Z,6.93
2023-02-12T01:12:32.227Z,6.92
2023-02-12T01:14:37.420Z,6.87
2023-02-12T01:16:42.337Z,6.83
2023-02-12T01:18:48.665Z,6.85
2023-02-12T01:20:53.734Z,6.87
2023-02-12T01:23:01.811Z,6.89
2023-02-12T01:25:06.552Z,6.84
2023-02-12T01:27:13.955Z,6.78
2023-02-12T01:29:18.745Z,6.72
2023-02-12T01:31:25.461Z,6.74
2023-02-12T01:33:31.687Z,6.78
2023-02-12T01:35:37.593Z,6.77
2023-02-12T01:37:42.445Z,6.79
2023-02-12T01:39:47.302Z,6.75
2023-02-12T01:41:55.868Z,6.73
2023-02-12T01:44:28.706Z,6.58
2023-02-12T01:46:33.644Z,6.56
2023-02-12T01:48:41.779Z,6.60
2023-02-12T01:50:49.271Z,6.59
2023-02-12T01:52:57.695Z,6.62
2023-02-12T01:55:08.304Z,6.67
2023-02-12T01:57:15.720Z,6.57
2023-02-12T01:59:22.928Z,6.52
2023-02-12T02:01:32.770Z,6.45
2023-02-12T02:03:40.605Z,6.32
2023-02-12T02:05:55.235Z,6.29
2023-02-12T02:08:01.971Z,6.30
2023-02-12T02:10:10.783Z,6.28
2023-02-12T02:12:28.126Z,6.20
2023-02-12T02:14:33.606Z,6.25
2023-02-12T02:16:48.318Z,6.28
2023-02-12T02:19:02.599Z,6.12
2023-02-12T02:21:34.835Z,6.12
2023-02-12T02:24:09.204Z,6.12
2023-02-12T02:26:40.057Z,6.21
2023-02-12T02:29:10.586Z,6.31
2023-02-12T02:31:23.961Z,6.39
2023-02-12T02:33:42.441Z,6.41
2023-02-12T02:35:56.453Z,6.46
2023-02-12T02:38:10.473Z,6.51
2023-02-12T02:40:20.385Z,6.55
2023-02-12T02:42:30.605Z,6.54
2023-02-12T02:44:41.871Z,6.54
2023-02-12T02:46:51.974Z,6.57
2023-02-12T02:49:02.233Z,6.57
2023-02-12T02:51:12.141Z,6.56
2023-02-12T02:53:21.569Z,6.61
2023-02-12T02:55:31.262Z,6.65
2023-02-12T02:57:41.540Z,6.68
2023-02-12T02:59:51.690Z,6.73
2023-02-12T03:02:06.067Z,6.80
2023-02-12T03:04:15.614Z,6.82
2023-02-12T03:06:27.505Z,6.85
2023-02-12T03:08:37.250Z,6.88
2023-02-12T03:10:45.833Z,6.92
2023-02-12T03:12:56.882Z,6.89
2023-02-12T03:15:07.763Z,6.76
2023-02-12T03:17:19.864Z,6.73
2023-02-12T03:19:28.055Z,6.73
2023-02-12T03:21:36.674Z,6.75
2023-02-12T03:23:49.129Z,6.82
2023-02-12T03:25:57.882Z,6.78
2023-02-12T03:28:09.653Z,6.74
2023-02-12T03:30:17.113Z,6.65
2023-02-12T03:32:34.236Z,6.67
2023-02-12T03:34:49.094Z,6.68
2023-02-12T03:36:58.750Z,6.61
2023-02-12T03:39:12.369Z,6.62
2023-02-12T03:41:23.860Z,6.65
2023-02-12T03:43:35.949Z,6.68
2023-02-12T03:45:47.854Z,6.72
2023-02-12T03:48:05.233Z,6.74
2023-02-12T03:50:17.093Z,6.72
2023-02-12T03:52:22.012Z,6.75
2023-02-12T03:54:27.567Z,6.81
2023-02-12T03:56:38.262Z,6.83
2023-02-12T03:58:45.826Z,6.81
2023-02-12T04:00:51.240Z,6.72
2023-02-12T04:02:59.535Z,6.70
2023-02-12T04:05:08.045Z,6.64
2023-02-12T04:07:13.293Z,6.66
2023-02-12T04:09:18.121Z,6.63
2023-02-12T04:11:32.556Z,6.62
2023-02-12T04:13:45.569Z,6.65
2023-02-12T04:16:05.913Z,6.69
2023-02-12T04:18:18.054Z,6.68
2023-02-12T04:20:30.522Z,6.64
2023-02-12T04:22:48.952Z,6.68
2023-02-12T04:25:02.614Z,6.68
2023-02-12T04:27:15.450Z,6.71
2023-02-12T04:29:28.706Z,6.73
2023-02-12T04:31:40.561Z,6.77
2023-02-12T04:34:00.666Z,6.74
2023-02-12T04:36:11.999Z,6.70
2023-02-12T04:38:22.501Z,6.71
2023-02-12T04:40:27.750Z,6.72
2023-02-12T04:42:32.342Z,6.69
2023-02-12T04:44:42.137Z,6.67
2023-02-12T04:46:46.903Z,6.72
2023-02-12T04:48:57.650Z,6.78
2023-02-12T04:51:02.586Z,6.80
2023-02-12T04:53:07.386Z,6.83
2023-02-12T04:55:12.257Z,6.82
2023-02-12T04:57:17.147Z,6.82
2023-02-12T04:59:22.037Z,6.83
2023-02-12T05:01:28.070Z,6.73
2023-02-12T05:03:34.090Z,6.67
2023-02-12T05:05:41.479Z,6.68
2023-02-12T05:07:46.372Z,6.65
2023-02-12T05:09:51.237Z,6.63
2023-02-12T05:11:56.138Z,6.65
2023-02-12T05:14:01.694Z,6.60
2023-02-12T05:16:07.590Z,6.57
2023-02-12T05:18:12.483Z,6.55
2023-02-12T05:20:17.461Z,6.61
2023-02-12T05:22:24.926Z,6.68
2023-02-12T05:24:29.997Z,6.72
2023-02-12T05:26:34.810Z,6.77
2023-02-12T05:28:39.679Z,6.81
2023-02-12T05:30:44.546Z,6.82
2023-02-12T05:32:49.628Z,6.82
2023-02-12T05:34:54.951Z,6.80
2023-02-12T05:37:02.408Z,6.72
2023-02-12T05:39:10.342Z,6.63
2023-02-12T05:41:17.028Z,6.56
2023-02-12T05:43:21.788Z,6.53
2023-02-12T05:45:28.239Z,6.53
2023-02-12T05:47:33.035Z,6.51
2023-02-12T05:49:37.854Z,6.48
2023-02-12T05:51:42.746Z,6.41
2023-02-12T05:53:47.546Z,6.38
2023-02-12T05:55:57.453Z,6.37
2023-02-12T05:58:02.316Z,6.34
2023-02-12T06:00:09.754Z,6.33
2023-02-12T06:02:17.011Z,6.32
2023-02-12T06:04:23.860Z,6.35
2023-02-12T06:06:29.157Z,6.37
2023-02-12T06:08:34.361Z,6.41
2023-02-12T06:10:40.021Z,6.41
2023-02-12T06:12:47.392Z,6.42
2023-02-12T06:14:52.317Z,6.45
2023-02-12T06:16:57.411Z,6.49
2023-02-12T06:19:03.734Z,6.50
2023-02-12T06:21:08.794Z,6.47
2023-02-12T06:23:13.674Z,6.44
2023-02-12T06:25:18.636Z,6.42
2023-02-12T06:27:23.463Z,6.42
2023-02-12T06:29:30.879Z,6.44
2023-02-12T06:31:39.370Z,6.50
2023-02-12T06:33:44.265Z,6.50
2023-02-12T06:35:49.076Z,6.50
2023-02-12T06:37:53.882Z,6.54
2023-02-12T06:39:58.729Z,6.56
2023-02-12T06:42:04.521Z,6.58
2023-02-12T06:44:09.827Z,6.64
2023-02-12T06:46:17.376Z,6.63
2023-02-12T06:48:22.241Z,6.65
2023-02-12T06:50:27.574Z,6.70
2023-02-12T06:52:32.545Z,6.73
2023-02-12T06:54:37.358Z,6.75
2023-02-12T06:56:42.293Z,6.78
2023-02-12T06:58:50.332Z,6.82
2023-02-12T07:00:55.307Z,6.85
2023-02-12T07:03:02.850Z,6.89
2023-02-12T07:05:10.895Z,6.90
2023-02-12T07:07:16.007Z,6.92
2023-02-12T07:09:20.900Z,6.97
2023-02-12T07:11:27.050Z,6.97
2023-02-12T07:13:35.061Z,7.00
2023-02-12T07:15:42.490Z,7.03
2023-02-12T07:17:47.370Z,7.00
2023-02-12T07:19:57.270Z,6.97
2023-02-12T07:22:02.385Z,6.97
2023-02-12T07:24:07.735Z,6.92
2023-02-12T07:26:15.491Z,6.92
2023-02-12T07:28:20.310Z,6.94
2023-02-12T07:30:25.425Z,6.91
2023-02-12T07:32:30.214Z,6.92
2023-02-12T07:34:35.520Z,6.96
2023-02-12T07:36:43.056Z,6.98
2023-02-12T07:38:48.176Z,6.98
2023-02-12T07:40:53.203Z,7.05
2023-02-12T07:42:58.833Z,7.06
2023-02-12T07:45:03.590Z,7.07
2023-02-12T07:47:08.407Z,7.09
2023-02-12T07:49:16.146Z,7.10
2023-02-12T07:51:21.617Z,7.14
2023-02-12T07:53:28.972Z,7.19
2023-02-12T07:55:33.936Z,7.21
2023-02-12T07:57:39.366Z,7.20
2023-02-12T07:59:44.204Z,7.15
2023-02-12T08:01:51.101Z,7.18
2023-02-12T08:03:56.475Z,7.19
2023-02-12T08:06:01.255Z,7.22
2023-02-12T08:08:06.165Z,7.20
2023-02-12T08:10:16.759Z,7.20
2023-02-12T08:12:22.031Z,7.25
2023-02-12T08:14:26.946Z,7.19
2023-02-12T08:16:33.189Z,7.11
2023-02-12T08:18:38.220Z,7.21
2023-02-12T08:20:43.170Z,7.26
2023-02-12T08:22:47.975Z,7.32
2023-02-12T08:24:52.803Z,7.40
2023-02-12T08:27:00.949Z,7.51
2023-02-12T08:29:07.990Z,7.59
2023-02-12T08:31:15.436Z,7.68
2023-02-12T08:33:20.299Z,7.77
2023-02-12T08:35:25.077Z,7.81
2023-02-12T08:37:29.831Z,7.83
2023-02-12T08:39:34.734Z,7.83
2023-02-12T08:41:40.137Z,7.89
2023-02-12T08:43:48.064Z,7.96
2023-02-12T08:45:53.298Z,7.89
2023-02-12T08:47:58.454Z,7.93
2023-02-12T08:50:03.879Z,7.79
2023-02-12T08:52:08.748Z,7.74
2023-02-12T08:54:15.662Z,7.70
2023-02-12T08:56:21.096Z,7.74
2023-02-12T08:58:25.986Z,7.73
2023-02-12T09:00:33.480Z,7.70
2023-02-12T09:02:38.395Z,7.65
2023-02-12T09:04:43.201Z,7.67
2023-02-12T09:06:49.192Z,7.72
2023-02-12T09:08:56.979Z,7.80
2023-02-12T09:11:02.062Z,7.79
2023-02-12T09:13:06.982Z,7.84
2023-02-12T09:15:12.349Z,7.91
2023-02-12T09:17:19.872Z,8.05
2023-02-12T09:19:24.942Z,8.13
2023-02-12T09:21:30.269Z,8.16
2023-02-12T09:23:35.330Z,8.14
2023-02-12T09:25:44.827Z,8.11
2023-02-12T09:27:49.650Z,8.01
2023-02-12T09:29:55.044Z,7.98
2023-02-12T09:31:59.883Z,8.03
2023-02-12T09:34:08.957Z,7.93
2023-02-12T09:36:16.057Z,7.94
2023-02-12T09:38:20.852Z,8.00
2023-02-12T09:40:33.889Z,7.98
2023-02-12T09:43:02.966Z,7.94
2023-02-12T09:45:19.410Z,7.93
2023-02-12T09:47:29.265Z,7.90
2023-02-12T09:50:09.948Z,7.99
2023-02-12T09:52:19.556Z,8.01
2023-02-12T09:54:28.817Z,7.98
2023-02-12T09:56:39.792Z,7.97
2023-02-12T09:58:49.337Z,7.95
2023-02-12T10:00:56.781Z,7.83
2023-02-12T10:03:05.914Z,7.83
2023-02-12T10:05:20.428Z,7.92
2023-02-12T10:07:39.942Z,8.05
2023-02-12T10:10:01.067Z,8.13
2023-02-12T10:12:15.600Z,8.13
2023-02-12T10:14:37.408Z,8.06
2023-02-12T10:16:52.198Z,8.02
2023-02-12T10:19:17.267Z,8.08
2023-02-12T10:21:42.492Z,8.19
2023-02-12T10:24:03.322Z,8.29
2023-02-12T10:26:19.196Z,8.23
2023-02-12T10:28:29.271Z,8.25
2023-02-12T10:30:42.850Z,8.35
2023-02-12T10:32:50.534Z,8.39
2023-02-12T10:34:56.688Z,8.47
2023-02-12T10:37:07.983Z,8.47
2023-02-12T10:39:19.902Z,8.49
2023-02-12T10:41:27.737Z,8.45
2023-02-12T10:43:32.803Z,8.48
2023-02-12T10:45:40.121Z,8.41
2023-02-12T10:47:45.208Z,8.34
2023-02-12T10:49:55.605Z,8.31
2023-02-12T10:52:12.476Z,8.26
2023-02-12T10:54:40.361Z,8.35
2023-02-12T10:56:45.348Z,8.31
2023-02-12T10:59:01.806Z,8.31
2023-02-12T11:01:07.739Z,8.34
2023-02-12T11:03:23.835Z,8.53
2023-02-12T11:05:34.734Z,8.49
2023-02-12T11:07:52.223Z,8.56
2023-02-12T11:09:59.681Z,8.61
2023-02-12T11:12:05.477Z,8.56
2023-02-12T11:14:21.254Z,8.60
2023-02-12T11:16:34.577Z,8.72
2023-02-12T11:18:39.965Z,8.81
2023-02-12T11:20:56.009Z,8.91
2023-02-12T11:23:06.448Z,8.94
2023-02-12T11:25:18.708Z,8.88
2023-02-12T11:27:28.814Z,8.93
2023-02-12T11:29:33.800Z,8.93
2023-02-12T11:31:41.719Z,8.90
2023-02-12T11:33:46.782Z,8.84
2023-02-12T11:35:57.527Z,8.75
2023-02-12T11:38:07.156Z,8.79
2023-02-12T11:40:19.810Z,8.60
2023-02-12T11:42:28.715Z,8.60
2023-02-12T11:44:37.155Z,8.56
2023-02-12T11:46:43.147Z,8.49
2023-02-12T11:48:50.174Z,8.53
2023-02-12T11:50:57.707Z,8.52
2023-02-12T11:53:09.520Z,8.65
2023-02-12T11:55:24.883Z,8.71
2023-02-12T11:57:39.959Z,8.75
2023-02-12T11:59:49.869Z,8.61
2023-02-12T12:01:58.196Z,8.72
2023-02-12T12:04:08.056Z,8.76
2023-02-12T12:06:24.362Z,8.71
2023-02-12T12:08:36.450Z,8.71
2023-02-12T12:10:47.289Z,8.77
2023-02-12T12:12:56.029Z,8.87
2023-02-12T12:15:18.117Z,8.77
2023-02-12T12:17:38.478Z,8.64
2023-02-12T12:19:56.394Z,8.63
2023-02-12T12:22:08.018Z,8.70
2023-02-12T12:24:20.236Z,8.76
2023-02-12T12:26:28.193Z,8.79
2023-02-12T12:28:37.911Z,8.77
2023-02-12T12:30:52.451Z,8.81
2023-02-12T12:33:02.410Z,8.92
2023-02-12T12:35:08.426Z,8.99
2023-02-12T12:37:27.754Z,9.02
2023-02-12T12:39:39.562Z,9.12
2023-02-12T12:42:00.042Z,9.15
2023-02-12T12:44:18.300Z,9.20
2023-02-12T12:46:43.317Z,9.28
2023-02-12T12:49:23.697Z,9.26
2023-02-12T12:51:41.430Z,9.17
2023-02-12T12:53:57.857Z,9.20
2023-02-12T12:56:22.101Z,9.24
2023-02-12T12:58:39.385Z,9.26
2023-02-12T13:01:05.239Z,9.35
2023-02-12T13:03:40.725Z,9.47
2023-02-12T13:06:09.614Z,9.46
2023-02-12T13:08:28.624Z,9.50
2023-02-12T13:10:39.620Z,9.55
2023-02-12T13:13:03.134Z,9.58
2023-02-12T13:15:18.048Z,9.58
2023-02-12T13:17:28.459Z,9.49
2023-02-12T13:19:44.978Z,9.51
2023-02-12T13:21:57.764Z,9.14
2023-02-12T13:24:06.439Z,9.23
2023-02-12T13:26:20.817Z,9.29
2023-02-12T13:28:36.646Z,9.28
2023-02-12T13:30:45.955Z,9.23
2023-02-12T13:32:58.768Z,9.14
2023-02-12T13:35:06.000Z,9.10
2023-02-12T13:37:18.938Z,9.26
2023-02-12T13:39:34.062Z,9.32
2023-02-12T13:41:39.714Z,9.37
2023-02-12T13:44:01.158Z,9.46
2023-02-12T13:46:14.062Z,9.42
2023-02-12T13:48:44.309Z,9.54
2023-02-12T13:51:01.435Z,9.61
2023-02-12T13:53:17.163Z,9.56
2023-02-12T13:55:28.218Z,9.46
2023-02-12T13:57:33.345Z,9.41
2023-02-12T13:59:45.122Z,9.47
2023-02-12T14:01:51.832Z,9.47
2023-02-12T14:03:56.973Z,9.41
2023-02-12T14:06:14.039Z,9.32
2023-02-12T14:08:40.088Z,9.15
2023-02-12T14:10:45.322Z,9.00
2023-02-12T14:12:50.045Z,8.96
2023-02-12T14:15:07.275Z,8.96
2023-02-12T14:17:43.008Z,8.89
2023-02-12T14:20:08.970Z,8.88
2023-02-12T14:22:16.260Z,8.83
2023-02-12T14:24:56.046Z,8.86
2023-02-12T14:27:01.569Z,8.76
2023-02-12T14:29:17.942Z,8.76
2023-02-12T14:31:36.810Z,8.77
2023-02-12T14:33:41.746Z,8.75
2023-02-12T14:35:49.576Z,8.76
2023-02-12T14:37:56.970Z,8.79
2023-02-12T14:40:31.734Z,8.70
2023-02-12T14:42:47.487Z,8.70
2023-02-12T14:44:59.291Z,8.73
2023-02-12T14:47:12.916Z,8.74
2023-02-12T14:49:28.210Z,8.58
2023-02-12T14:51:39.723Z,8.55
2023-02-12T14:53:46.719Z,8.53
2023-02-12T14:55:54.027Z,8.51
2023-02-12T14:58:02.892Z,8.47
2023-02-12T15:00:23.908Z,8.38
2023-02-12T15:02:35.349Z,8.25
2023-02-12T15:04:44.593Z,8.26
2023-02-12T15:06:55.572Z,8.25
2023-02-12T15:09:05.550Z,8.26
2023-02-12T15:11:19.928Z,8.25
2023-02-12T15:13:31.316Z,8.22
2023-02-12T15:15:42.070Z,8.23
2023-02-12T15:17:59.285Z,8.20
2023-02-12T15:20:08.449Z,8.15
2023-02-12T15:22:23.182Z,8.14
2023-02-12T15:24:29.587Z,8.08
2023-02-12T15:26:39.497Z,8.08
2023-02-12T15:28:49.338Z,8.03
2023-02-12T15:30:58.897Z,8.03
2023-02-12T15:33:08.556Z,8.04
2023-02-12T15:35:25.938Z,7.97
2023-02-12T15:37:34.056Z,7.92
2023-02-12T15:39:45.284Z,7.92
2023-02-12T15:41:50.845Z,7.93
2023-02-12T15:43:55.783Z,7.93
2023-02-12T15:46:00.866Z,7.90
2023-02-12T15:48:15.533Z,7.87
2023-02-12T15:50:22.722Z,7.82
2023-02-12T15:52:35.461Z,7.81
2023-02-12T15:54:41.297Z,7.67
2023-02-12T15:56:46.193Z,7.62
2023-02-12T15:58:55.825Z,7.60
2023-02-12T16:01:06.428Z,7.58
2023-02-12T16:03:24.378Z,7.58
2023-02-12T16:05:30.231Z,7.56
2023-02-12T16:07:39.691Z,7.58
2023-02-12T16:09:46.129Z,7.52
2023-02-12T16:11:51.677Z,7.49
2023-02-12T16:13:59.659Z,7.47
2023-02-12T16:16:10.539Z,7.45
2023-02-12T16:18:30.424Z,7.40
2023-02-12T16:20:35.534Z,7.36
2023-02-12T16:22:42.572Z,7.34
2023-02-12T16:24:50.388Z,7.28
2023-02-12T16:26:55.679Z,7.20
2023-02-12T16:29:00.658Z,7.15
2023-02-12T16:31:14.745Z,7.03
2023-02-12T16:33:38.618Z,7.02
2023-02-12T16:35:43.477Z,6.91
2023-02-12T16:37:51.124Z,6.94
2023-02-12T16:40:37.634Z,6.96
2023-02-12T16:42:42.603Z,6.87
2023-02-12T16:44:47.507Z,6.82
2023-02-12T16:46:55.075Z,6.79
2023-02-12T16:49:04.838Z,6.77
2023-02-12T16:51:24.626Z,6.71
2023-02-12T16:53:43.925Z,6.70
2023-02-12T16:55:48.865Z,6.70
2023-02-12T16:57:56.724Z,6.71
2023-02-12T17:00:01.618Z,6.69
2023-02-12T17:02:09.927Z,6.67
2023-02-12T17:04:19.065Z,6.64
2023-02-12T17:06:25.854Z,6.61
2023-02-12T17:08:30.702Z,6.54
2023-02-12T17:10:35.506Z,6.52
2023-02-12T17:12:47.858Z,6.50
2023-02-12T17:14:55.152Z,6.40
2023-02-12T17:17:00.026Z,6.39
2023-02-12T17:19:04.901Z,6.38
2023-02-12T17:21:19.885Z,6.36
2023-02-12T17:23:25.188Z,6.34
2023-02-12T17:25:30.275Z,6.30
2023-02-12T17:27:37.327Z,6.27
2023-02-12T17:29:42.914Z,6.28
2023-02-12T17:31:48.326Z,6.25
2023-02-12T17:33:55.511Z,6.22
2023-02-12T17:36:01.243Z,6.20
2023-02-12T17:38:09.415Z,6.15
2023-02-12T17:40:14.978Z,6.11
2023-02-12T17:42:20.152Z,6.07
2023-02-12T17:44:24.930Z,6.04
2023-02-12T17:46:31.661Z,5.99
2023-02-12T17:48:36.467Z,6.03
2023-02-12T17:50:41.989Z,6.07
2023-02-12T17:52:47.118Z,6.10
2023-02-12T17:54:56.890Z,6.17
2023-02-12T17:57:01.735Z,6.20
2023-02-12T17:59:06.685Z,6.19
2023-02-12T18:01:13.512Z,6.21
2023-02-12T18:03:18.417Z,6.27
2023-02-12T18:05:23.297Z,6.33
2023-02-12T18:07:28.240Z,6.37
2023-02-12T18:09:33.597Z,6.34
2023-02-12T18:11:42.488Z,6.28
2023-02-12T18:13:47.689Z,6.32
2023-02-12T18:15:52.478Z,6.34
2023-02-12T18:17:59.676Z,6.33
2023-02-12T18:20:04.834Z,6.34
2023-02-12T18:22:09.857Z,6.29
2023-02-12T18:24:15.504Z,6.23
2023-02-12T18:26:21.742Z,6.26
2023-02-12T18:28:29.272Z,6.32
2023-02-12T18:30:34.292Z,6.38
2023-02-12T18:32:39.611Z,6.39
2023-02-12T18:34:44.429Z,6.28
2023-02-12T18:36:49.499Z,6.25
2023-02-12T18:38:55.612Z,6.30
2023-02-12T18:41:01.135Z,6.32
2023-02-12T18:43:05.970Z,6.31
2023-02-12T18:45:13.590Z,6.32
2023-02-12T18:47:19.734Z,6.35
2023-02-12T18:49:33.519Z,6.32
2023-02-12T18:51:41.168Z,6.40
2023-02-12T18:53:46.679Z,6.43
2023-02-12T18:55:58.082Z,6.50
2023-02-12T18:58:05.262Z,6.41
2023-02-12T19:00:16.293Z,6.39
2023-02-12T19:02:21.294Z,6.35
2023-02-12T19:04:28.550Z,6.29
2023-02-12T19:06:39.364Z,6.38
2023-02-12T19:08:46.654Z,6.30
2023-02-12T19:10:55.259Z,6.34
2023-02-12T19:13:01.088Z,6.32
2023-02-12T19:15:08.271Z,6.37
2023-02-12T19:17:15.647Z,6.44
2023-02-12T19:19:23.649Z,6.50
2023-02-12T19:21:28.849Z,6.52
2023-02-12T19:23:33.470Z,6.54
2023-02-12T19:25:42.814Z,6.51
2023-02-12T19:27:47.690Z,6.59
2023-02-12T19:29:52.532Z,6.67
2023-02-12T19:31:59.622Z,6.71
2023-02-12T19:34:10.408Z,6.77
2023-02-12T19:36:20.481Z,6.80
2023-02-12T19:38:28.091Z,6.79
2023-02-12T19:40:33.297Z,6.83
2023-02-12T19:42:38.112Z,6.88
2023-02-12T19:44:44.596Z,6.91
2023-02-12T19:46:52.667Z,6.95
2023-02-12T19:49:02.654Z,6.99
2023-02-12T19:51:16.214Z,6.97
2023-02-12T19:53:24.325Z,6.99
2023-02-12T19:55:29.086Z,7.00
2023-02-12T19:57:39.069Z,7.01
2023-02-12T19:59:46.555Z,7.06
2023-02-12T20:01:52.314Z,7.05
2023-02-12T20:04:00.682Z,7.00
2023-02-12T20:06:13.437Z,6.95
2023-02-12T20:08:24.886Z,6.85
2023-02-12T20:10:29.772Z,6.88
2023-02-12T20:12:36.332Z,6.80
2023-02-12T20:14:41.249Z,6.81
2023-02-12T20:16:48.061Z,6.80
2023-02-12T20:19:02.702Z,6.84
2023-02-12T20:21:15.573Z,6.86
2023-02-12T20:23:20.435Z,6.88
2023-02-12T20:25:32.520Z,6.89
2023-02-12T20:27:37.482Z,6.93
2023-02-12T20:29:42.260Z,6.88
2023-02-12T20:31:49.771Z,6.79
2023-02-12T20:33:58.203Z,6.75
2023-02-12T20:36:05.298Z,6.73
2023-02-12T20:38:12.770Z,6.73
2023-02-12T20:40:20.710Z,6.76
2023-02-12T20:42:25.650Z,6.70
2023-02-12T20:44:37.246Z,6.73
2023-02-12T20:46:42.844Z,6.79
2023-02-12T20:48:51.514Z,6.75
2023-02-12T20:50:56.459Z,6.72
2023-02-12T20:53:02.456Z,6.68
2023-02-12T20:55:10.759Z,6.70
2023-02-12T20:57:15.705Z,6.72
2023-02-12T20:59:21.254Z,6.77
2023-02-12T21:01:29.385Z,6.82
2023-02-12T21:03:34.287Z,6.84
2023-02-12T21:05:42.326Z,6.80
2023-02-12T21:07:49.788Z,6.82
2023-02-12T21:09:56.651Z,6.78
2023-02-12T21:12:04.103Z,6.73
2023-02-12T21:14:25.054Z,6.66
2023-02-12T21:16:34.740Z,6.61
2023-02-12T21:18:40.789Z,6.62
2023-02-12T21:20:45.645Z,6.65
2023-02-12T21:22:50.492Z,6.65
2023-02-12T21:24:55.333Z,6.67
2023-02-12T21:27:03.146Z,6.74
2023-02-12T21:29:08.088Z,6.82
2023-02-12T21:31:15.086Z,6.82
2023-02-12T21:33:19.976Z,6.88
2023-02-12T21:35:24.805Z,6.89
2023-02-12T21:37:29.700Z,6.79
2023-02-12T21:39:34.526Z,6.79
2023-02-12T21:41:41.841Z,6.76
2023-02-12T21:43:51.348Z,6.77
2023-02-12T21:45:56.498Z,6.77
2023-02-12T21:48:01.638Z,6.73
2023-02-12T21:50:06.863Z,6.71
2023-02-12T21:52:11.678Z,6.73
2023-02-12T21:54:18.277Z,6.82
2023-02-12T21:56:23.913Z,6.76
2023-02-12T21:58:28.815Z,6.78
2023-02-12T22:00:36.264Z,6.85
2023-02-12T22:02:41.181Z,6.85
2023-02-12T22:04:46.151Z,6.88
2023-02-12T22:06:54.151Z,6.88
2023-02-12T22:09:03.331Z,6.83
2023-02-12T22:11:09.656Z,6.85
2023-02-12T22:13:14.601Z,6.82
2023-02-12T22:15:19.633Z,6.83
2023-02-12T22:17:27.023Z,6.78
2023-02-12T22:19:31.996Z,6.73
2023-02-12T22:21:39.008Z,6.73
2023-02-12T22:23:44.824Z,6.74
2023-02-12T22:25:49.641Z,6.73
2023-02-12T22:27:54.963Z,6.67
2023-02-12T22:29:59.550Z,6.65
2023-02-12T22:32:04.612Z,6.66
2023-02-12T22:34:15.177Z,6.62
2023-02-12T22:36:22.009Z,6.65
2023-02-12T22:38:26.829Z,6.60
2023-02-12T22:40:31.960Z,6.51
2023-02-12T22:42:36.848Z,6.45
2023-02-12T22:44:41.758Z,6.43
2023-02-12T22:46:46.579Z,6.45
2023-02-12T22:48:51.945Z,6.42
2023-02-12T22:51:03.145Z,6.37
2023-02-12T22:53:08.170Z,6.30
2023-02-12T22:55:13.265Z,6.26
2023-02-12T22:57:19.622Z,6.22
2023-02-12T22:59:24.779Z,6.26
2023-02-12T23:01:31.015Z,6.21
2023-02-12T23:03:37.529Z,6.12
2023-02-12T23:05:42.470Z,6.05
2023-02-12T23:07:49.911Z,6.00
2023-02-12T23:09:54.959Z,5.95
2023-02-12T23:11:59.779Z,5.88
2023-02-12T23:14:04.651Z,5.84
2023-02-12T23:16:09.673Z,5.82
2023-02-12T23:18:14.545Z,5.77
2023-02-12T23:20:19.387Z,5.74
2023-02-12T23:22:24.290Z,5.68
2023-02-12T23:24:31.766Z,5.67
2023-02-12T23:26:36.759Z,5.62
2023-02-12T23:28:41.671Z,5.57
2023-02-12T23:30:46.588Z,5.52
2023-02-12T23:32:51.515Z,5.42
2023-02-12T23:34:56.285Z,5.33
2023-02-12T23:37:01.123Z,5.30
2023-02-12T23:39:06.621Z,5.28
2023-02-12T23:41:14.142Z,5.28
2023-02-12T23:43:19.001Z,5.29
2023-02-12T23:45:23.763Z,5.27
2023-02-12T23:47:28.621Z,5.28
2023-02-12T23:49:35.285Z,5.24
2023-02-12T23:51:40.062Z,5.17
2023-02-12T23:53:45.243Z,5.13
2023-02-12T23:55:52.082Z,5.10
2023-02-12T23:57:59.479Z,5.01
